South Erie, Pennsylvania
Current Conditions -  °F | °C
As of 3:51 PM on Sunday 21 Dec 2014 (Local Time) from KERI Reporting Station
Overcast Overcast  
Wind Chill: 29°   Ceiling: 2700
Heat Index: 33°   Visibility: 10mi
Dew Point: 21°   Wind: 5mph
Humidity: 61%   Direction: 190°S
Pressure: 30.26"   Gusts: NA
Location:  42.0975°N, 80.0932°W
Report Text: KERI 212051Z 19004KT 10SM OVC027 01/M06 A3026 RMK AO2 SLP257 T00061061 56009
Loading
Personal Weather Stations






























Interactive Weather Map New forecast layout! Learn more

10-Day Weather Forecast

Advertisements
Track Severe Weather on mobile